createdAt,value
2023-04-22T00:01:21.416Z,93.30
2023-04-22T00:03:48.306Z,93.70
2023-04-22T00:06:15.146Z,93.70
2023-04-22T00:08:43.208Z,93.70
2023-04-22T00:11:09.975Z,93.70
2023-04-22T00:13:36.840Z,93.40
2023-04-22T00:16:03.759Z,93.30
2023-04-22T00:18:30.563Z,93.20
2023-04-22T00:20:57.289Z,92.80
2023-04-22T00:23:24.045Z,92.60
2023-04-22T00:25:52.110Z,92.90
2023-04-22T00:28:18.868Z,92.90
2023-04-22T00:30:45.642Z,93.20
2023-04-22T00:33:12.404Z,93.30
2023-04-22T00:35:39.145Z,93.30
2023-04-22T00:38:05.869Z,93.40
2023-04-22T00:40:32.611Z,93.40
2023-04-22T00:43:01.542Z,93.40
2023-04-22T00:45:30.228Z,93.50
2023-04-22T00:47:57.174Z,94.30
2023-04-22T00:50:24.128Z,94.10
2023-04-22T00:52:50.898Z,94.00
2023-04-22T00:55:17.793Z,93.90
2023-04-22T00:57:44.742Z,93.80
2023-04-22T01:00:13.970Z,93.80
2023-04-22T01:02:41.035Z,94.00
2023-04-22T01:05:08.365Z,93.70
2023-04-22T01:07:35.482Z,93.10
2023-04-22T01:10:02.477Z,93.10
2023-04-22T01:12:29.194Z,93.10
2023-04-22T01:14:56.167Z,93.30
2023-04-22T01:17:24.292Z,93.30
2023-04-22T01:19:51.140Z,93.40
2023-04-22T01:22:18.683Z,93.30
2023-04-22T01:24:46.810Z,92.50
2023-04-22T01:27:13.900Z,93.00
2023-04-22T01:29:40.943Z,93.20
2023-04-22T01:32:08.015Z,93.60
2023-04-22T01:34:34.802Z,93.50
2023-04-22T01:37:01.570Z,94.00
2023-04-22T01:39:29.325Z,93.80
2023-04-22T01:41:57.798Z,93.00
2023-04-22T01:44:25.254Z,93.60
2023-04-22T01:46:51.945Z,93.70
2023-04-22T01:49:18.665Z,92.60
2023-04-22T01:51:45.336Z,92.20
2023-04-22T01:54:12.296Z,93.70
2023-04-22T01:56:38.980Z,93.00
2023-04-22T01:59:07.045Z,92.50
2023-04-22T02:01:33.886Z,92.30
2023-04-22T02:04:00.665Z,92.40
2023-04-22T02:06:27.484Z,92.50
2023-04-22T02:08:54.177Z,93.10
2023-04-22T02:11:21.024Z,92.60
2023-04-22T02:13:47.730Z,92.70
2023-04-22T02:16:15.823Z,93.30
2023-04-22T02:18:42.585Z,93.10
2023-04-22T02:21:09.367Z,92.80
2023-04-22T02:23:36.791Z,92.90
2023-04-22T02:26:03.627Z,93.00
2023-04-22T02:28:30.514Z,92.60
2023-04-22T02:30:57.294Z,92.70
2023-04-22T02:33:25.434Z,93.10
2023-04-22T02:35:52.119Z,93.00
2023-04-22T02:38:19.154Z,92.90
2023-04-22T02:40:45.910Z,92.80
2023-04-22T02:43:12.833Z,92.80
2023-04-22T02:45:39.521Z,92.80
2023-04-22T02:48:06.413Z,92.70
2023-04-22T02:50:34.532Z,92.80
2023-04-22T02:53:01.232Z,92.80
2023-04-22T02:55:27.945Z,92.80
2023-04-22T02:57:54.762Z,92.80
2023-04-22T03:00:21.507Z,92.80
2023-04-22T03:02:48.343Z,92.90
2023-04-22T03:05:15.278Z,92.90
2023-04-22T03:07:43.363Z,93.00
2023-04-22T03:10:10.325Z,92.70
2023-04-22T03:12:37.045Z,92.40
2023-04-22T03:15:04.266Z,92.40
2023-04-22T03:17:31.016Z,92.30
2023-04-22T03:19:57.734Z,92.30
2023-04-22T03:22:24.493Z,92.20
2023-04-22T03:24:52.528Z,92.10
2023-04-22T03:27:19.233Z,92.10
2023-04-22T03:29:45.960Z,92.10
2023-04-22T03:32:12.671Z,92.20
2023-04-22T03:34:39.504Z,92.40
2023-04-22T03:37:06.227Z,92.30
2023-04-22T03:39:32.933Z,92.10
2023-04-22T03:42:02.111Z,92.50
2023-04-22T03:44:28.823Z,92.10
2023-04-22T03:46:55.504Z,91.90
2023-04-22T03:49:22.775Z,91.90
2023-04-22T03:51:49.453Z,92.00
2023-04-22T03:54:16.177Z,91.90
2023-04-22T03:56:42.910Z,92.00
2023-04-22T03:59:10.940Z,92.30
2023-04-22T04:01:37.650Z,92.70
2023-04-22T04:04:04.661Z,92.30
2023-04-22T04:06:31.591Z,92.10
2023-04-22T04:08:58.284Z,91.80
2023-04-22T04:11:25.168Z,91.60
2023-04-22T04:13:51.842Z,91.70
2023-04-22T04:16:19.974Z,91.60
2023-04-22T04:18:49.767Z,91.60
2023-04-22T04:21:16.493Z,91.50
2023-04-22T04:23:43.215Z,91.50
2023-04-22T04:26:09.950Z,91.80
2023-04-22T04:28:36.656Z,91.90
2023-04-22T04:31:03.382Z,91.90
2023-04-22T04:33:31.594Z,91.80
2023-04-22T04:35:59.052Z,91.30
2023-04-22T04:38:25.858Z,91.30
2023-04-22T04:40:53.183Z,91.30
2023-04-22T04:43:20.019Z,91.30
2023-04-22T04:45:48.756Z,91.30
2023-04-22T04:48:16.304Z,91.50
2023-04-22T04:50:44.623Z,91.60
2023-04-22T04:53:12.067Z,91.70
2023-04-22T04:55:38.934Z,91.80
2023-04-22T04:58:05.770Z,91.80
2023-04-22T05:00:32.480Z,92.20
2023-04-22T05:02:59.305Z,91.90
2023-04-22T05:05:26.135Z,91.70
2023-04-22T05:07:54.190Z,91.80
2023-04-22T05:10:21.080Z,92.00
2023-04-22T05:12:47.820Z,92.60
2023-04-22T05:15:14.810Z,92.90
2023-04-22T05:17:41.581Z,93.10
2023-04-22T05:20:09.051Z,93.50
2023-04-22T05:22:35.998Z,93.20
2023-04-22T05:25:04.958Z,93.30
2023-04-22T05:27:31.836Z,93.10
2023-04-22T05:29:58.581Z,93.00
2023-04-22T05:32:25.342Z,93.00
2023-04-22T05:34:52.139Z,94.10
2023-04-22T05:37:18.839Z,95.00
2023-04-22T05:39:45.552Z,95.10
2023-04-22T05:42:13.598Z,95.40
2023-04-22T05:44:40.262Z,95.70
2023-04-22T05:47:06.977Z,96.60
2023-04-22T05:49:33.711Z,96.30
2023-04-22T05:52:00.435Z,96.00
2023-04-22T05:54:28.060Z,96.70
2023-04-22T05:56:54.966Z,96.50
2023-04-22T05:59:23.084Z,96.00
2023-04-22T06:01:49.751Z,95.50
2023-04-22T06:04:16.816Z,95.30
2023-04-22T06:06:43.706Z,95.40
2023-04-22T06:09:10.392Z,95.30
2023-04-22T06:11:37.127Z,95.40
2023-04-22T06:14:03.802Z,94.40
2023-04-22T06:16:31.877Z,94.00
2023-04-22T06:18:58.616Z,93.90
2023-04-22T06:21:25.359Z,94.20
2023-04-22T06:23:52.038Z,93.50
2023-04-22T06:26:18.759Z,93.10
2023-04-22T06:28:45.489Z,92.80
2023-04-22T06:31:12.248Z,92.80
2023-04-22T06:33:40.323Z,93.00
2023-04-22T06:36:07.448Z,92.70
2023-04-22T06:38:34.183Z,92.60
2023-04-22T06:41:00.888Z,92.40
2023-04-22T06:43:27.597Z,92.40
2023-04-22T06:45:54.322Z,92.30
2023-04-22T06:48:21.048Z,92.40
2023-04-22T06:50:49.093Z,92.30
2023-04-22T06:53:15.828Z,92.30
2023-04-22T06:55:42.604Z,92.30
2023-04-22T06:58:09.355Z,92.30
2023-04-22T07:00:36.047Z,92.40
2023-04-22T07:03:02.942Z,92.30
2023-04-22T07:05:29.942Z,92.40
2023-04-22T07:07:57.987Z,92.40
2023-04-22T07:10:24.795Z,92.20
2023-04-22T07:12:51.489Z,92.30
2023-04-22T07:15:18.392Z,92.20
2023-04-22T07:17:45.143Z,92.20
2023-04-22T07:20:12.054Z,92.20
2023-04-22T07:22:38.758Z,92.30
2023-04-22T07:25:07.284Z,92.20
2023-04-22T07:27:35.883Z,92.80
2023-04-22T07:30:04.361Z,92.40
2023-04-22T07:32:31.115Z,92.40
2023-04-22T07:34:57.822Z,92.40
2023-04-22T07:37:24.536Z,92.50
2023-04-22T07:39:51.316Z,92.50
2023-04-22T07:42:19.388Z,92.60
2023-04-22T07:44:46.110Z,92.60
2023-04-22T07:47:12.795Z,92.70
2023-04-22T07:49:39.694Z,92.80
2023-04-22T07:52:06.630Z,92.90
2023-04-22T07:54:33.335Z,93.00
2023-04-22T07:57:00.040Z,93.20
2023-04-22T07:59:28.131Z,93.30
2023-04-22T08:01:54.914Z,93.30
2023-04-22T08:04:23.867Z,93.50
2023-04-22T08:06:50.823Z,93.60
2023-04-22T08:09:17.691Z,94.10
2023-04-22T08:11:44.423Z,93.90
2023-04-22T08:14:11.202Z,93.90
2023-04-22T08:16:40.025Z,94.20
2023-04-22T08:19:06.750Z,94.30
2023-04-22T08:21:33.499Z,94.50
2023-04-22T08:24:00.225Z,94.80
2023-04-22T08:26:26.936Z,94.80
2023-04-22T08:28:53.739Z,95.00
2023-04-22T08:31:20.504Z,95.30
2023-04-22T08:33:48.605Z,95.40
2023-04-22T08:36:15.341Z,95.50
2023-04-22T08:38:42.084Z,95.60
2023-04-22T08:41:09.642Z,95.70
2023-04-22T08:43:36.698Z,95.80
2023-04-22T08:46:03.593Z,96.00
2023-04-22T08:48:30.593Z,96.10
2023-04-22T08:50:58.918Z,96.10
2023-04-22T08:53:25.754Z,96.50
2023-04-22T08:55:55.495Z,96.70
2023-04-22T08:58:23.157Z,96.90
2023-04-22T09:00:50.334Z,97.10
2023-04-22T09:03:18.477Z,97.20
2023-04-22T09:05:46.328Z,97.40
2023-04-22T09:08:14.666Z,97.60
2023-04-22T09:10:41.378Z,97.80
2023-04-22T09:13:08.444Z,97.90
2023-04-22T09:15:35.160Z,98.00
2023-04-22T09:18:02.693Z,98.30
2023-04-22T09:20:30.387Z,98.20
2023-04-22T09:23:01.759Z,98.30
2023-04-22T09:25:29.988Z,98.60
2023-04-22T09:27:59.102Z,98.70
2023-04-22T09:30:27.691Z,98.80
2023-04-22T09:32:55.720Z,99.40
2023-04-22T09:35:27.552Z,99.10
2023-04-22T09:37:54.464Z,99.30
2023-04-22T09:40:21.440Z,99.40
2023-04-22T09:42:50.700Z,99.40
2023-04-22T09:45:27.223Z,99.80
2023-04-22T09:47:55.197Z,99.80
2023-04-22T09:50:24.040Z,99.90
2023-04-22T09:52:54.923Z,99.90
2023-04-22T09:55:22.331Z,99.90
2023-04-22T09:57:53.803Z,99.90
2023-04-22T10:00:21.623Z,99.90
2023-04-22T10:02:48.453Z,99.90
2023-04-22T10:05:15.378Z,99.90
2023-04-22T10:07:42.545Z,99.90
2023-04-22T10:10:09.891Z,99.90
2023-04-22T10:12:36.945Z,99.90
2023-04-22T10:15:06.122Z,99.90
2023-04-22T10:17:37.075Z,99.90
2023-04-22T10:20:09.659Z,99.90
2023-04-22T10:22:36.713Z,99.90
2023-04-22T10:25:03.829Z,99.90
2023-04-22T10:27:31.236Z,99.90
2023-04-22T10:29:57.951Z,99.90
2023-04-22T10:32:27.061Z,99.90
2023-04-22T10:35:12.840Z,99.90
2023-04-22T10:37:42.625Z,99.90
2023-04-22T10:40:11.482Z,99.90
2023-04-22T10:42:40.702Z,99.90
2023-04-22T10:45:11.629Z,99.90
2023-04-22T10:47:40.015Z,99.90
2023-04-22T10:50:12.347Z,99.90
2023-04-22T10:52:39.253Z,99.90
2023-04-22T10:55:06.240Z,99.90
2023-04-22T10:57:36.828Z,99.90
2023-04-22T11:00:23.130Z,99.90
2023-04-22T11:02:54.407Z,99.90
2023-04-22T11:05:25.856Z,99.90
2023-04-22T11:07:54.812Z,99.90
2023-04-22T11:10:34.335Z,99.90
2023-04-22T11:13:02.101Z,99.90
2023-04-22T11:15:30.608Z,99.90
2023-04-22T11:17:59.261Z,99.90
2023-04-22T11:20:26.027Z,99.90
2023-04-22T11:22:54.585Z,99.90
2023-04-22T11:25:21.794Z,99.90
2023-04-22T11:27:48.647Z,99.90
2023-04-22T11:30:17.093Z,99.90
2023-04-22T11:32:45.307Z,99.90
2023-04-22T11:35:14.824Z,99.90
2023-04-22T11:37:42.741Z,99.90
2023-04-22T11:40:28.121Z,99.90
2023-04-22T11:42:57.223Z,99.90
2023-04-22T11:45:25.254Z,99.90
2023-04-22T11:47:52.907Z,99.90
2023-04-22T11:50:24.258Z,99.90
2023-04-22T11:52:52.575Z,99.90
2023-04-22T11:55:22.331Z,99.90
2023-04-22T11:57:56.623Z,99.90
2023-04-22T12:00:24.526Z,99.90
2023-04-22T12:02:59.541Z,99.90
2023-04-22T12:05:38.834Z,99.90
2023-04-22T12:08:10.309Z,99.90
2023-04-22T12:10:42.392Z,99.90
2023-04-22T12:13:09.727Z,99.90
2023-04-22T12:15:41.594Z,99.90
2023-04-22T12:18:08.527Z,99.90
2023-04-22T12:20:37.976Z,99.90
2023-04-22T12:23:04.733Z,99.90
2023-04-22T12:25:31.473Z,99.90
2023-04-22T12:27:58.167Z,99.90
2023-04-22T12:30:24.918Z,99.90
2023-04-22T12:32:52.262Z,99.90
2023-04-22T12:35:19.361Z,99.90
2023-04-22T12:37:47.430Z,99.90
2023-04-22T12:40:14.228Z,99.90
2023-04-22T12:42:41.015Z,99.90
2023-04-22T12:45:08.831Z,99.90
2023-04-22T12:47:35.933Z,99.90
2023-04-22T12:50:02.784Z,99.90
2023-04-22T12:52:29.523Z,99.90
2023-04-22T12:54:57.552Z,99.90
2023-04-22T12:57:24.259Z,99.90
2023-04-22T12:59:50.990Z,99.90
2023-04-22T13:02:17.854Z,99.90
2023-04-22T13:04:44.719Z,99.90
2023-04-22T13:07:11.548Z,99.90
2023-04-22T13:09:38.557Z,99.90
2023-04-22T13:12:06.980Z,99.90
2023-04-22T13:14:33.657Z,99.90
2023-04-22T13:17:00.392Z,99.90
2023-04-22T13:19:27.100Z,99.90
2023-04-22T13:21:53.811Z,99.90
2023-04-22T13:24:20.498Z,99.90
2023-04-22T13:26:47.316Z,99.90
2023-04-22T13:29:15.397Z,99.90
2023-04-22T13:31:42.853Z,99.90
2023-04-22T13:34:10.612Z,99.90
2023-04-22T13:36:37.406Z,99.90
2023-04-22T13:39:05.048Z,99.90
2023-04-22T13:41:31.744Z,99.90
2023-04-22T13:43:58.462Z,99.90
2023-04-22T13:46:26.694Z,99.90
2023-04-22T13:48:53.721Z,99.90
2023-04-22T13:51:20.423Z,99.90
2023-04-22T13:53:47.139Z,99.90
2023-04-22T13:56:13.969Z,99.90
2023-04-22T13:58:41.028Z,99.90
2023-04-22T14:01:07.878Z,99.90
2023-04-22T14:03:36.331Z,99.90
2023-04-22T14:06:03.729Z,99.90
2023-04-22T14:08:30.544Z,99.90
2023-04-22T14:10:57.303Z,99.90
2023-04-22T14:13:24.005Z,99.90
2023-04-22T14:15:50.731Z,99.90
2023-04-22T14:18:17.461Z,99.90
2023-04-22T14:20:45.521Z,99.90
2023-04-22T14:23:12.236Z,99.90
2023-04-22T14:25:39.001Z,99.90
2023-04-22T14:28:05.796Z,99.90
2023-04-22T14:30:32.672Z,99.90
2023-04-22T14:32:59.440Z,99.90
2023-04-22T14:35:26.232Z,99.90
2023-04-22T14:37:54.333Z,99.90
2023-04-22T14:40:21.201Z,99.90
2023-04-22T14:42:47.944Z,99.90
2023-04-22T14:45:14.728Z,99.90
2023-04-22T14:47:41.521Z,99.90
2023-04-22T14:50:08.695Z,99.90
2023-04-22T14:52:35.449Z,99.90
2023-04-22T14:55:15.527Z,99.90
2023-04-22T14:57:50.135Z,99.90
2023-04-22T15:00:17.126Z,99.90
2023-04-22T15:02:44.596Z,99.90
2023-04-22T15:05:11.563Z,99.90
2023-04-22T15:07:38.285Z,99.90
2023-04-22T15:10:07.582Z,99.90
2023-04-22T15:12:34.304Z,99.90
2023-04-22T15:15:01.047Z,99.90
2023-04-22T15:17:27.841Z,99.90
2023-04-22T15:19:54.586Z,99.90
2023-04-22T15:22:21.312Z,99.90
2023-04-22T15:24:48.035Z,99.90
2023-04-22T15:27:16.134Z,99.90
2023-04-22T15:29:42.875Z,99.90
2023-04-22T15:32:09.662Z,99.90
2023-04-22T15:34:36.414Z,99.90
2023-04-22T15:37:03.168Z,99.90
2023-04-22T15:39:29.993Z,99.90
2023-04-22T15:41:57.014Z,99.90
2023-04-22T15:44:25.053Z,99.90
2023-04-22T15:46:52.452Z,99.90
2023-04-22T15:49:19.583Z,99.90
2023-04-22T15:51:46.280Z,99.90
2023-04-22T15:54:13.071Z,99.90
2023-04-22T15:56:39.829Z,99.90
2023-04-22T15:59:06.519Z,99.90
2023-04-22T16:01:34.700Z,99.90
2023-04-22T16:04:01.747Z,99.90
2023-04-22T16:06:28.602Z,99.90
2023-04-22T16:08:55.298Z,99.90
2023-04-22T16:11:22.012Z,99.90
2023-04-22T16:13:48.705Z,99.90
2023-04-22T16:16:15.935Z,99.90
2023-04-22T16:18:44.429Z,99.90
2023-04-22T16:21:11.304Z,99.90
2023-04-22T16:23:38.088Z,99.90
2023-04-22T16:26:05.037Z,99.90
2023-04-22T16:28:32.090Z,99.90
2023-04-22T16:30:59.004Z,99.90
2023-04-22T16:33:25.954Z,99.90
2023-04-22T16:35:54.026Z,99.90
2023-04-22T16:38:20.782Z,99.90
2023-04-22T16:40:47.485Z,99.90
2023-04-22T16:43:14.202Z,99.90
2023-04-22T16:45:41.325Z,99.90
2023-04-22T16:48:08.039Z,99.90
2023-04-22T16:50:34.770Z,99.90
2023-04-22T16:53:02.805Z,99.90
2023-04-22T16:55:29.475Z,99.90
2023-04-22T16:57:56.314Z,99.90
2023-04-22T17:00:23.236Z,99.90
2023-04-22T17:02:50.001Z,99.90
2023-04-22T17:05:16.950Z,99.90
2023-04-22T17:07:43.675Z,99.90
2023-04-22T17:10:11.838Z,99.90
2023-04-22T17:12:38.586Z,99.90
2023-04-22T17:15:06.531Z,99.90
2023-04-22T17:17:33.293Z,99.90
2023-04-22T17:20:00.119Z,99.90
2023-04-22T17:22:27.182Z,99.90
2023-04-22T17:24:54.082Z,99.90
2023-04-22T17:27:22.587Z,99.90
2023-04-22T17:29:49.276Z,99.90
2023-04-22T17:32:16.117Z,99.90
2023-04-22T17:34:43.107Z,99.90
2023-04-22T17:37:10.060Z,99.90
2023-04-22T17:39:36.897Z,99.90
2023-04-22T17:42:03.917Z,99.90
2023-04-22T17:44:32.031Z,99.90
2023-04-22T17:46:58.798Z,99.90
2023-04-22T17:49:25.570Z,99.90
2023-04-22T17:51:52.308Z,99.90
2023-04-22T17:54:19.053Z,99.90
2023-04-22T17:56:45.855Z,99.90
2023-04-22T17:59:12.560Z,99.90
2023-04-22T18:01:40.623Z,99.90
2023-04-22T18:04:07.510Z,99.90
2023-04-22T18:06:34.242Z,99.90
2023-04-22T18:09:00.923Z,99.90
2023-04-22T18:11:27.642Z,99.90
2023-04-22T18:13:54.540Z,99.90
2023-04-22T18:16:21.369Z,99.90
2023-04-22T18:18:49.487Z,99.90
2023-04-22T18:21:16.664Z,99.90
2023-04-22T18:23:43.585Z,99.90
2023-04-22T18:26:10.272Z,99.90
2023-04-22T18:28:37.386Z,99.90
2023-04-22T18:31:04.293Z,99.90
2023-04-22T18:33:31.046Z,99.90
2023-04-22T18:35:59.073Z,99.90
2023-04-22T18:38:25.904Z,99.90
2023-04-22T18:40:52.649Z,99.90
2023-04-22T18:43:19.430Z,99.90
2023-04-22T18:45:46.164Z,99.90
2023-04-22T18:48:12.985Z,99.40
2023-04-22T18:50:40.280Z,99.10
2023-04-22T18:53:08.342Z,99.40
2023-04-22T18:55:35.119Z,98.80
2023-04-22T18:58:01.964Z,99.40
2023-04-22T19:00:28.781Z,98.90
2023-04-22T19:02:55.766Z,98.20
2023-04-22T19:05:22.557Z,98.10
2023-04-22T19:07:49.334Z,97.40
2023-04-22T19:10:17.810Z,96.40
2023-04-22T19:12:44.555Z,96.20
2023-04-22T19:15:11.744Z,96.10
2023-04-22T19:17:38.573Z,96.60
2023-04-22T19:20:06.794Z,95.90
2023-04-22T19:22:33.503Z,95.60
2023-04-22T19:25:00.585Z,93.80
2023-04-22T19:27:28.822Z,95.10
2023-04-22T19:29:55.545Z,95.70
2023-04-22T19:32:22.366Z,94.80
2023-04-22T19:34:49.206Z,92.30
2023-04-22T19:37:16.021Z,94.30
2023-04-22T19:39:43.111Z,94.70
2023-04-22T19:42:10.037Z,93.70
2023-04-22T19:44:38.123Z,93.60
2023-04-22T19:47:05.028Z,93.90
2023-04-22T19:49:32.443Z,94.40
2023-04-22T19:52:01.488Z,93.60
2023-04-22T19:54:29.955Z,93.30
2023-04-22T19:56:57.164Z,92.40
2023-04-22T19:59:24.043Z,91.20
2023-04-22T20:01:52.608Z,88.90
2023-04-22T20:04:20.003Z,89.90
2023-04-22T20:06:46.986Z,90.10
2023-04-22T20:09:13.977Z,90.10
2023-04-22T20:11:41.349Z,90.80
2023-04-22T20:14:08.899Z,91.20
2023-04-22T20:16:36.266Z,91.50
2023-04-22T20:19:04.654Z,91.00
2023-04-22T20:21:34.176Z,90.60
2023-04-22T20:24:03.664Z,89.70
2023-04-22T20:26:30.822Z,90.00
2023-04-22T20:28:58.089Z,90.00
2023-04-22T20:31:25.071Z,89.40
2023-04-22T20:33:52.267Z,89.30
2023-04-22T20:36:20.593Z,89.80
2023-04-22T20:38:49.572Z,88.90
2023-04-22T20:41:17.127Z,90.00
2023-04-22T20:43:43.912Z,89.10
2023-04-22T20:46:10.688Z,88.70
2023-04-22T20:48:37.461Z,88.00
2023-04-22T20:51:04.312Z,88.10
2023-04-22T20:53:32.387Z,88.90
2023-04-22T20:55:59.109Z,88.80
2023-04-22T20:58:25.829Z,89.40
2023-04-22T21:00:52.595Z,88.70
2023-04-22T21:03:22.511Z,88.50
2023-04-22T21:05:49.952Z,88.10
2023-04-22T21:08:20.354Z,87.80
2023-04-22T21:10:49.603Z,87.80
2023-04-22T21:13:17.686Z,87.40
2023-04-22T21:15:50.084Z,87.70
2023-04-22T21:18:20.896Z,87.50
2023-04-22T21:20:51.652Z,87.30
2023-04-22T21:23:19.410Z,87.50
2023-04-22T21:25:48.557Z,87.80
2023-04-22T21:28:16.181Z,88.00
2023-04-22T21:30:43.705Z,88.10
2023-04-22T21:33:10.559Z,88.40
2023-04-22T21:35:37.342Z,88.40
2023-04-22T21:38:04.066Z,88.20
2023-04-22T21:40:30.762Z,88.10
2023-04-22T21:42:59.025Z,87.40
2023-04-22T21:45:25.882Z,88.00
2023-04-22T21:47:52.729Z,87.30
2023-04-22T21:50:20.848Z,87.40
2023-04-22T21:52:48.384Z,87.60
2023-04-22T21:55:15.154Z,87.60
2023-04-22T21:57:41.946Z,87.50
2023-04-22T22:00:11.166Z,87.90
2023-04-22T22:02:37.963Z,87.70
2023-04-22T22:05:05.141Z,87.70
2023-04-22T22:07:31.899Z,87.50
2023-04-22T22:09:58.605Z,87.30
2023-04-22T22:12:25.320Z,87.50
2023-04-22T22:14:52.074Z,87.90
2023-04-22T22:17:20.153Z,88.00
2023-04-22T22:19:46.858Z,88.10
2023-04-22T22:22:13.560Z,88.00
2023-04-22T22:24:40.428Z,88.90
2023-04-22T22:27:07.304Z,89.00
2023-04-22T22:29:34.037Z,89.00
2023-04-22T22:32:00.885Z,88.80
2023-04-22T22:34:29.134Z,88.80
2023-04-22T22:36:55.858Z,89.00
2023-04-22T22:39:22.566Z,89.00
2023-04-22T22:41:49.294Z,88.60
2023-04-22T22:44:16.016Z,89.70
2023-04-22T22:46:42.788Z,89.50
2023-04-22T22:49:10.085Z,88.90
2023-04-22T22:51:38.147Z,89.20
2023-04-22T22:54:05.307Z,89.00
2023-04-22T22:56:32.068Z,88.70
2023-04-22T22:58:58.766Z,89.70
2023-04-22T23:01:25.569Z,89.40
2023-04-22T23:03:52.557Z,89.20
2023-04-22T23:06:19.405Z,88.70
2023-04-22T23:08:47.763Z,88.80
2023-04-22T23:11:14.476Z,89.00
2023-04-22T23:13:41.175Z,89.00
2023-04-22T23:16:07.897Z,89.80
2023-04-22T23:18:36.376Z,89.90
2023-04-22T23:21:04.704Z,90.00
2023-04-22T23:23:32.550Z,90.10
2023-04-22T23:26:01.220Z,90.30
2023-04-22T23:28:28.595Z,90.20
2023-04-22T23:33:25.009Z,90.70
2023-04-22T23:35:52.829Z,90.60
2023-04-22T23:38:19.685Z,90.70
2023-04-22T23:40:46.387Z,90.70
2023-04-22T23:43:14.445Z,91.30
2023-04-22T23:45:41.296Z,90.90
2023-04-22T23:48:07.986Z,90.70
2023-04-22T23:50:34.931Z,90.60
2023-04-22T23:53:01.671Z,90.70
2023-04-22T23:55:29.317Z,90.50
2023-04-22T23:57:56.599Z,90.50
